• Join FlightAware (Why Join?)
  • Login
  • US Flag 
01:42PM EDT


 

Airport Tracker/Info


-or-


 

Live Flight TrackerFlight Track Log ✈ C-GUGB ✈ 14-Jul-2013 ✈ CYQA - CYKZ

Flight Track Log - Related Links

Times and Time Zones

All times are in EDT time to prevent confusion due to time zone crossing. See the C-GUGB flight status page for this flight to view local times or setup timezone preferences in your user account.

Time Position Orientation Groundspeed Altitude Reporting Facility
EDT Latitude Longitude Course Direction KTS MPH feet Rate Location/Type
06:51PM 44.7398 -79.3176 174° South  Level Estimated
06:52PM 44.7110 -79.3095 169° South  Level FlightAware Approximate
06:53PM 44.6822 -79.3015 169° South  Level FlightAware Approximate
06:54PM 44.6534 -79.2934 169° South  Level FlightAware Approximate
06:55PM 44.6246 -79.2854 169° South  Level FlightAware Approximate
06:56PM 44.5957 -79.2774 169° South  Level FlightAware Approximate
06:57PM 44.5669 -79.2693 169° South  Level FlightAware Approximate
06:57PM 44.6500 -79.2333 180° South 110 127 4,000  Level Toronto Center
06:58PM 44.5381 -79.2613 169° South  Level FlightAware Approximate
06:58PM 44.6167 -79.2333 180° South 110 127 4,000  Level Toronto Center
06:59PM 44.5093 -79.2533 169° South  Level FlightAware Approximate
06:59PM 44.6000 -79.2333 180° South 110 127 4,000  Level Toronto Center
07:00PM 44.4804 -79.2453 169° South  Level FlightAware Approximate
07:00PM 44.5667 -79.2333 180° South 110 127 4,000  Level Toronto Center
07:01PM 44.4516 -79.2373 169° South  Level FlightAware Approximate
07:01PM 44.5333 -79.2333 180° South 110 127 4,000  Level Toronto Center
07:02PM 44.5000 -79.2333 180° South 110 127 4,000  Level Toronto Center
07:03PM 44.4667 -79.2167 160° South 110 127 4,000  Level Toronto Center
07:04PM 44.4500 -79.2167 180° South 110 127 4,000  Level Toronto Center
07:05PM 44.4167 -79.2167 180° South 110 127 4,000  Level Toronto Center
07:06PM 44.3833 -79.2167 180° South 110 127 4,000  Level Toronto Center
07:07PM 44.3500 -79.1833 144° Southeast 110 127 4,000  Level Toronto Center
07:08PM 44.3167 -79.1833 180° South 110 127 4,000  Level Toronto Center
07:09PM 44.3000 -79.1833 180° South 110 127 4,000  Level Toronto Center
07:10PM 44.2667 -79.2167 216° Southwest 100 115 4,000 -60 Level Toronto Center
07:11PM 44.2333 -79.2167 180° South 100 115 3,900 -60 Descending Toronto Center
07:12PM 44.2167 -79.2167 180° South 100 115 3,900  Level Toronto Center
07:13PM 44.1833 -79.2333 200° South 100 115 4,000  Climbing Toronto Center
07:14PM 44.1500 -79.2333 180° South 100 115 4,000  Level Toronto Center
07:15PM 44.1500 -79.2833 270° West 100 115 4,000  Level Toronto Center
07:16PM 44.1333 -79.3000 216° Southwest 100 115 4,000  Level Toronto Center
07:17PM 44.1333 -79.3500 270° West 100 115 4,000 -300 Level Toronto Center
07:18PM 44.1167 -79.4000 245° Southwest 100 115 3,500 -540 Descending Toronto Center
07:19PM 44.1000 -79.4167 216° Southwest 100 115 3,000 -300 Descending Toronto Center
07:20PM 44.0833 -79.4500 235° Southwest 100 115 2,900 -60 Descending Toronto Center
07:21PM 44.0667 -79.4667 216° Southwest 100 115 2,900  Level Toronto Center
07:22PM 44.0500 -79.5000 235° Southwest 100 115 3,000  Climbing Toronto Center
07:23PM 44.0167 -79.5167 200° South 100 115 3,000 -180 Level Toronto Center
07:24PM 44.0000 -79.5167 180° South 90 104 2,700 -300 Descending Toronto Center
07:25PM 43.9833 -79.5000 144° Southeast 90 104 2,500 -300 Descending Toronto Center
07:26PM 43.9667 -79.4667 125° Southeast 90 104 2,200 -180 Descending Toronto Center
07:27PM 43.9500 -79.4500 144° Southeast 90 104 2,200 -120 Level Toronto Center
07:28PM 43.9167 -79.4167 144° Southeast 90 104 2,000 -180 Descending Toronto Center
07:29PM 43.9000 -79.4000 144° Southeast 90 104 1,900 -240 Descending Toronto Center
07:30PM 43.8833 -79.3833 144° Southeast 90 104 1,600 -540 Descending Toronto Center
07:31PM 43.8667 -79.3500 125° Southeast 90 104 900 -720 Descending Toronto Center
07:33PM 43.8500 -79.3667 194° South  Level FlightAware Approximate